sensor_id;sensor_type;location;lat;lon;timestamp;P1;durP1;ratioP1;P2;durP2;ratioP2
45548;SDS011;31270;48.328;10.096;2022-09-29T00:01:52;6.27;;;5.10;;
45548;SDS011;31270;48.328;10.096;2022-09-29T00:04:17;6.77;;;4.73;;
45548;SDS011;31270;48.328;10.096;2022-09-29T00:06:44;7.00;;;4.90;;
45548;SDS011;31270;48.328;10.096;2022-09-29T00:09:09;7.70;;;5.10;;
45548;SDS011;31270;48.328;10.096;2022-09-29T00:11:35;7.13;;;4.73;;
45548;SDS011;31270;48.328;10.096;2022-09-29T00:14:01;7.87;;;4.97;;
45548;SDS011;31270;48.328;10.096;2022-09-29T00:16:26;8.67;;;5.00;;
45548;SDS011;31270;48.328;10.096;2022-09-29T00:18:53;6.73;;;5.03;;
45548;SDS011;31270;48.328;10.096;2022-09-29T00:21:19;8.60;;;5.33;;
45548;SDS011;31270;48.328;10.096;2022-09-29T00:23:46;8.07;;;4.60;;
45548;SDS011;31270;48.328;10.096;2022-09-29T00:26:14;7.40;;;5.27;;
45548;SDS011;31270;48.328;10.096;2022-09-29T00:28:50;7.70;;;5.23;;
45548;SDS011;31270;48.328;10.096;2022-09-29T00:31:17;7.53;;;5.03;;
45548;SDS011;31270;48.328;10.096;2022-09-29T00:33:43;7.90;;;5.40;;
45548;SDS011;31270;48.328;10.096;2022-09-29T00:36:10;9.73;;;5.57;;
45548;SDS011;31270;48.328;10.096;2022-09-29T00:38:38;8.17;;;5.43;;
45548;SDS011;31270;48.328;10.096;2022-09-29T00:41:05;8.60;;;5.43;;
45548;SDS011;31270;48.328;10.096;2022-09-29T00:49:05;8.00;;;5.53;;
45548;SDS011;31270;48.328;10.096;2022-09-29T00:51:39;10.00;;;5.80;;
45548;SDS011;31270;48.328;10.096;2022-09-29T00:54:08;8.03;;;5.40;;
45548;SDS011;31270;48.328;10.096;2022-09-29T00:56:35;8.63;;;5.90;;
45548;SDS011;31270;48.328;10.096;2022-09-29T00:59:05;8.23;;;5.73;;
45548;SDS011;31270;48.328;10.096;2022-09-29T01:01:33;8.73;;;6.43;;
45548;SDS011;31270;48.328;10.096;2022-09-29T01:04:02;7.10;;;5.93;;
45548;SDS011;31270;48.328;10.096;2022-09-29T01:06:35;8.43;;;6.50;;
45548;SDS011;31270;48.328;10.096;2022-09-29T01:09:09;10.03;;;6.27;;
45548;SDS011;31270;48.328;10.096;2022-09-29T01:11:38;10.10;;;6.57;;
45548;SDS011;31270;48.328;10.096;2022-09-29T01:14:06;9.53;;;6.50;;
45548;SDS011;31270;48.328;10.096;2022-09-29T01:16:33;8.80;;;6.23;;
45548;SDS011;31270;48.328;10.096;2022-09-29T01:19:02;9.00;;;6.30;;
45548;SDS011;31270;48.328;10.096;2022-09-29T01:24:12;10.33;;;7.13;;
45548;SDS011;31270;48.328;10.096;2022-09-29T01:26:57;9.93;;;6.93;;
45548;SDS011;31270;48.328;10.096;2022-09-29T01:29:56;9.40;;;6.57;;
45548;SDS011;31270;48.328;10.096;2022-09-29T01:32:39;8.83;;;6.60;;
45548;SDS011;31270;48.328;10.096;2022-09-29T01:35:34;9.40;;;6.97;;
45548;SDS011;31270;48.328;10.096;2022-09-29T01:41:05;10.90;;;6.83;;
45548;SDS011;31270;48.328;10.096;2022-09-29T01:44:28;9.03;;;6.30;;
45548;SDS011;31270;48.328;10.096;2022-09-29T01:46:35;10.50;;;7.10;;
45548;SDS011;31270;48.328;10.096;2022-09-29T01:49:05;10.77;;;7.37;;
45548;SDS011;31270;48.328;10.096;2022-09-29T01:51:40;9.43;;;6.47;;
45548;SDS011;31270;48.328;10.096;2022-09-29T01:54:14;10.43;;;7.03;;
45548;SDS011;31270;48.328;10.096;2022-09-29T01:56:50;11.97;;;6.63;;
45548;SDS011;31270;48.328;10.096;2022-09-29T01:59:25;13.10;;;7.50;;
45548;SDS011;31270;48.328;10.096;2022-09-29T02:02:15;13.47;;;7.20;;
45548;SDS011;31270;48.328;10.096;2022-09-29T02:05:04;10.90;;;7.13;;
45548;SDS011;31270;48.328;10.096;2022-09-29T02:07:36;14.47;;;7.03;;
45548;SDS011;31270;48.328;10.096;2022-09-29T02:10:27;10.97;;;7.07;;
45548;SDS011;31270;48.328;10.096;2022-09-29T02:12:56;10.50;;;6.47;;
45548;SDS011;31270;48.328;10.096;2022-09-29T02:15:27;8.30;;;5.67;;
45548;SDS011;31270;48.328;10.096;2022-09-29T02:17:56;8.30;;;4.93;;
45548;SDS011;31270;48.328;10.096;2022-09-29T02:20:27;7.23;;;4.97;;
45548;SDS011;31270;48.328;10.096;2022-09-29T02:22:52;8.20;;;5.10;;
45548;SDS011;31270;48.328;10.096;2022-09-29T02:25:19;7.97;;;5.63;;
45548;SDS011;31270;48.328;10.096;2022-09-29T02:27:47;9.30;;;5.77;;
45548;SDS011;31270;48.328;10.096;2022-09-29T02:30:15;8.57;;;5.83;;
45548;SDS011;31270;48.328;10.096;2022-09-29T02:32:41;9.10;;;5.30;;
45548;SDS011;31270;48.328;10.096;2022-09-29T02:35:07;10.87;;;5.57;;
45548;SDS011;31270;48.328;10.096;2022-09-29T02:40:09;8.30;;;6.17;;
45548;SDS011;31270;48.328;10.096;2022-09-29T02:45:32;8.13;;;5.97;;
45548;SDS011;31270;48.328;10.096;2022-09-29T02:48:46;8.60;;;5.97;;
45548;SDS011;31270;48.328;10.096;2022-09-29T02:59:25;9.93;;;6.20;;
45548;SDS011;31270;48.328;10.096;2022-09-29T03:01:59;9.97;;;5.70;;
45548;SDS011;31270;48.328;10.096;2022-09-29T03:04:25;8.40;;;6.27;;
45548;SDS011;31270;48.328;10.096;2022-09-29T03:06:52;11.60;;;7.93;;
45548;SDS011;31270;48.328;10.096;2022-09-29T03:09:18;12.73;;;7.17;;
45548;SDS011;31270;48.328;10.096;2022-09-29T03:11:44;12.03;;;7.90;;
45548;SDS011;31270;48.328;10.096;2022-09-29T03:14:10;10.37;;;7.00;;
45548;SDS011;31270;48.328;10.096;2022-09-29T03:16:35;11.00;;;7.50;;
45548;SDS011;31270;48.328;10.096;2022-09-29T03:19:04;10.37;;;7.30;;
45548;SDS011;31270;48.328;10.096;2022-09-29T03:21:31;11.80;;;7.77;;
45548;SDS011;31270;48.328;10.096;2022-09-29T03:23:57;11.43;;;7.60;;
45548;SDS011;31270;48.328;10.096;2022-09-29T03:26:23;13.47;;;7.80;;
45548;SDS011;31270;48.328;10.096;2022-09-29T03:28:49;12.13;;;8.10;;
45548;SDS011;31270;48.328;10.096;2022-09-29T03:31:15;15.07;;;7.97;;
45548;SDS011;31270;48.328;10.096;2022-09-29T03:33:41;12.97;;;8.67;;
45548;SDS011;31270;48.328;10.096;2022-09-29T03:36:08;11.83;;;8.30;;
45548;SDS011;31270;48.328;10.096;2022-09-29T03:38:35;15.40;;;8.17;;
45548;SDS011;31270;48.328;10.096;2022-09-29T03:41:02;12.00;;;8.27;;
45548;SDS011;31270;48.328;10.096;2022-09-29T03:43:28;12.80;;;8.30;;
45548;SDS011;31270;48.328;10.096;2022-09-29T03:45:54;11.63;;;8.27;;
45548;SDS011;31270;48.328;10.096;2022-09-29T03:48:21;12.47;;;8.07;;
45548;SDS011;31270;48.328;10.096;2022-09-29T03:50:47;13.30;;;8.47;;
45548;SDS011;31270;48.328;10.096;2022-09-29T03:53:14;12.80;;;8.23;;
45548;SDS011;31270;48.328;10.096;2022-09-29T03:55:44;11.77;;;8.50;;
45548;SDS011;31270;48.328;10.096;2022-09-29T03:58:13;12.17;;;8.80;;
45548;SDS011;31270;48.328;10.096;2022-09-29T04:00:40;12.83;;;9.27;;
45548;SDS011;31270;48.328;10.096;2022-09-29T04:03:05;15.43;;;9.70;;
45548;SDS011;31270;48.328;10.096;2022-09-29T04:05:31;14.73;;;9.17;;
45548;SDS011;31270;48.328;10.096;2022-09-29T04:08:02;15.83;;;10.27;;
45548;SDS011;31270;48.328;10.096;2022-09-29T04:10:28;15.83;;;9.80;;
45548;SDS011;31270;48.328;10.096;2022-09-29T04:12:54;14.47;;;9.37;;
45548;SDS011;31270;48.328;10.096;2022-09-29T04:15:20;15.60;;;8.17;;
45548;SDS011;31270;48.328;10.096;2022-09-29T04:17:45;11.77;;;7.13;;
45548;SDS011;31270;48.328;10.096;2022-09-29T04:20:11;10.97;;;6.70;;
45548;SDS011;31270;48.328;10.096;2022-09-29T04:22:37;10.53;;;6.87;;
45548;SDS011;31270;48.328;10.096;2022-09-29T04:25:02;12.37;;;7.07;;
45548;SDS011;31270;48.328;10.096;2022-09-29T04:27:28;10.77;;;7.47;;
45548;SDS011;31270;48.328;10.096;2022-09-29T04:29:54;11.33;;;8.30;;
45548;SDS011;31270;48.328;10.096;2022-09-29T04:32:19;15.37;;;9.00;;
45548;SDS011;31270;48.328;10.096;2022-09-29T04:34:45;15.83;;;10.23;;
45548;SDS011;31270;48.328;10.096;2022-09-29T04:37:12;15.07;;;9.57;;
45548;SDS011;31270;48.328;10.096;2022-09-29T04:39:38;14.43;;;8.87;;
45548;SDS011;31270;48.328;10.096;2022-09-29T04:42:04;12.27;;;8.47;;
45548;SDS011;31270;48.328;10.096;2022-09-29T04:44:31;11.63;;;8.23;;
45548;SDS011;31270;48.328;10.096;2022-09-29T04:46:57;12.03;;;7.50;;
45548;SDS011;31270;48.328;10.096;2022-09-29T04:49:22;11.63;;;6.83;;
45548;SDS011;31270;48.328;10.096;2022-09-29T04:51:48;11.83;;;7.43;;
45548;SDS011;31270;48.328;10.096;2022-09-29T04:54:14;13.30;;;7.53;;
45548;SDS011;31270;48.328;10.096;2022-09-29T04:56:39;10.90;;;6.70;;
45548;SDS011;31270;48.328;10.096;2022-09-29T04:59:05;10.73;;;7.17;;
45548;SDS011;31270;48.328;10.096;2022-09-29T05:01:31;10.10;;;6.47;;
45548;SDS011;31270;48.328;10.096;2022-09-29T05:03:56;12.93;;;6.80;;
45548;SDS011;31270;48.328;10.096;2022-09-29T05:06:22;11.50;;;7.50;;
45548;SDS011;31270;48.328;10.096;2022-09-29T05:08:48;11.67;;;7.50;;
45548;SDS011;31270;48.328;10.096;2022-09-29T05:11:13;10.13;;;7.10;;
45548;SDS011;31270;48.328;10.096;2022-09-29T05:13:39;16.87;;;8.67;;
45548;SDS011;31270;48.328;10.096;2022-09-29T05:16:05;17.30;;;11.07;;
45548;SDS011;31270;48.328;10.096;2022-09-29T05:18:31;16.83;;;10.80;;
45548;SDS011;31270;48.328;10.096;2022-09-29T05:21:04;18.97;;;10.83;;
45548;SDS011;31270;48.328;10.096;2022-09-29T05:23:31;16.40;;;10.70;;
45548;SDS011;31270;48.328;10.096;2022-09-29T05:26:01;14.87;;;10.00;;
45548;SDS011;31270;48.328;10.096;2022-09-29T05:28:30;16.20;;;11.20;;
45548;SDS011;31270;48.328;10.096;2022-09-29T05:31:03;20.27;;;9.93;;
45548;SDS011;31270;48.328;10.096;2022-09-29T05:33:30;15.83;;;9.80;;
45548;SDS011;31270;48.328;10.096;2022-09-29T05:35:56;16.13;;;9.53;;
45548;SDS011;31270;48.328;10.096;2022-09-29T05:38:22;17.10;;;9.73;;
45548;SDS011;31270;48.328;10.096;2022-09-29T05:40:49;10.47;;;7.03;;
45548;SDS011;31270;48.328;10.096;2022-09-29T05:43:15;11.30;;;7.07;;
45548;SDS011;31270;48.328;10.096;2022-09-29T05:45:41;11.43;;;7.17;;
45548;SDS011;31270;48.328;10.096;2022-09-29T05:48:06;11.10;;;7.33;;
45548;SDS011;31270;48.328;10.096;2022-09-29T05:50:32;11.70;;;7.50;;
45548;SDS011;31270;48.328;10.096;2022-09-29T05:53:09;14.60;;;8.17;;
45548;SDS011;31270;48.328;10.096;2022-09-29T05:55:35;13.10;;;8.10;;
45548;SDS011;31270;48.328;10.096;2022-09-29T05:58:02;11.67;;;7.93;;
45548;SDS011;31270;48.328;10.096;2022-09-29T06:00:29;11.97;;;7.90;;
45548;SDS011;31270;48.328;10.096;2022-09-29T06:02:58;16.77;;;8.77;;
45548;SDS011;31270;48.328;10.096;2022-09-29T06:05:25;15.30;;;9.27;;
45548;SDS011;31270;48.328;10.096;2022-09-29T06:07:51;16.93;;;10.43;;
45548;SDS011;31270;48.328;10.096;2022-09-29T06:10:17;19.70;;;12.30;;
45548;SDS011;31270;48.328;10.096;2022-09-29T06:12:43;22.70;;;12.57;;
45548;SDS011;31270;48.328;10.096;2022-09-29T06:15:09;17.97;;;10.73;;
45548;SDS011;31270;48.328;10.096;2022-09-29T06:17:35;18.30;;;11.43;;
45548;SDS011;31270;48.328;10.096;2022-09-29T06:20:02;14.30;;;9.03;;
45548;SDS011;31270;48.328;10.096;2022-09-29T06:22:28;14.53;;;8.17;;
45548;SDS011;31270;48.328;10.096;2022-09-29T06:24:54;11.00;;;7.43;;
45548;SDS011;31270;48.328;10.096;2022-09-29T06:27:20;15.67;;;8.20;;
45548;SDS011;31270;48.328;10.096;2022-09-29T06:29:46;13.43;;;8.80;;
45548;SDS011;31270;48.328;10.096;2022-09-29T06:32:12;16.07;;;9.27;;
45548;SDS011;31270;48.328;10.096;2022-09-29T06:34:37;15.90;;;9.43;;
45548;SDS011;31270;48.328;10.096;2022-09-29T06:37:23;11.90;;;8.40;;
45548;SDS011;31270;48.328;10.096;2022-09-29T06:40:04;13.03;;;7.97;;
45548;SDS011;31270;48.328;10.096;2022-09-29T06:42:32;15.07;;;9.03;;
45548;SDS011;31270;48.328;10.096;2022-09-29T06:44:58;12.90;;;8.77;;
45548;SDS011;31270;48.328;10.096;2022-09-29T06:47:24;15.47;;;9.57;;
45548;SDS011;31270;48.328;10.096;2022-09-29T06:49:50;14.97;;;9.57;;
45548;SDS011;31270;48.328;10.096;2022-09-29T06:52:15;18.30;;;10.80;;
45548;SDS011;31270;48.328;10.096;2022-09-29T06:54:42;17.63;;;10.30;;
45548;SDS011;31270;48.328;10.096;2022-09-29T06:57:07;15.20;;;9.73;;
45548;SDS011;31270;48.328;10.096;2022-09-29T06:59:33;13.17;;;9.17;;
45548;SDS011;31270;48.328;10.096;2022-09-29T07:01:59;14.90;;;8.97;;
45548;SDS011;31270;48.328;10.096;2022-09-29T07:04:25;14.70;;;9.20;;
45548;SDS011;31270;48.328;10.096;2022-09-29T07:06:51;14.87;;;9.47;;
45548;SDS011;31270;48.328;10.096;2022-09-29T07:09:17;16.10;;;9.37;;
45548;SDS011;31270;48.328;10.096;2022-09-29T07:11:43;14.77;;;9.70;;
45548;SDS011;31270;48.328;10.096;2022-09-29T07:14:18;14.67;;;8.83;;
45548;SDS011;31270;48.328;10.096;2022-09-29T07:16:46;14.23;;;9.37;;
45548;SDS011;31270;48.328;10.096;2022-09-29T07:19:13;15.83;;;10.43;;
45548;SDS011;31270;48.328;10.096;2022-09-29T07:21:39;17.73;;;10.27;;
45548;SDS011;31270;48.328;10.096;2022-09-29T07:24:05;15.23;;;10.47;;
45548;SDS011;31270;48.328;10.096;2022-09-29T07:26:30;15.67;;;10.17;;
45548;SDS011;31270;48.328;10.096;2022-09-29T07:28:56;15.50;;;10.70;;
45548;SDS011;31270;48.328;10.096;2022-09-29T07:31:22;16.90;;;10.33;;
45548;SDS011;31270;48.328;10.096;2022-09-29T07:33:48;14.53;;;10.07;;
45548;SDS011;31270;48.328;10.096;2022-09-29T07:36:15;16.27;;;10.77;;
45548;SDS011;31270;48.328;10.096;2022-09-29T07:38:44;16.30;;;11.40;;
45548;SDS011;31270;48.328;10.096;2022-09-29T07:41:14;15.87;;;10.80;;
45548;SDS011;31270;48.328;10.096;2022-09-29T07:43:41;14.60;;;10.43;;
45548;SDS011;31270;48.328;10.096;2022-09-29T07:46:06;14.10;;;10.40;;
45548;SDS011;31270;48.328;10.096;2022-09-29T07:48:33;17.07;;;11.03;;
45548;SDS011;31270;48.328;10.096;2022-09-29T07:51:19;13.53;;;10.30;;
45548;SDS011;31270;48.328;10.096;2022-09-29T07:53:45;15.70;;;10.70;;
45548;SDS011;31270;48.328;10.096;2022-09-29T07:56:18;15.07;;;10.83;;
45548;SDS011;31270;48.328;10.096;2022-09-29T07:58:46;15.63;;;11.30;;
45548;SDS011;31270;48.328;10.096;2022-09-29T08:01:14;15.50;;;11.30;;
45548;SDS011;31270;48.328;10.096;2022-09-29T08:03:42;15.07;;;10.23;;
45548;SDS011;31270;48.328;10.096;2022-09-29T08:06:11;16.20;;;10.00;;
45548;SDS011;31270;48.328;10.096;2022-09-29T08:08:37;14.13;;;10.03;;
45548;SDS011;31270;48.328;10.096;2022-09-29T08:11:05;14.13;;;9.93;;
45548;SDS011;31270;48.328;10.096;2022-09-29T08:13:32;14.40;;;9.37;;
45548;SDS011;31270;48.328;10.096;2022-09-29T08:16:00;15.43;;;9.87;;
45548;SDS011;31270;48.328;10.096;2022-09-29T08:18:26;12.60;;;9.80;;
45548;SDS011;31270;48.328;10.096;2022-09-29T08:20:53;13.97;;;9.70;;
45548;SDS011;31270;48.328;10.096;2022-09-29T08:23:20;15.37;;;9.40;;
45548;SDS011;31270;48.328;10.096;2022-09-29T08:25:45;14.03;;;8.70;;
45548;SDS011;31270;48.328;10.096;2022-09-29T08:28:11;14.50;;;9.67;;
45548;SDS011;31270;48.328;10.096;2022-09-29T08:30:37;10.50;;;8.23;;
45548;SDS011;31270;48.328;10.096;2022-09-29T08:33:03;15.33;;;9.60;;
45548;SDS011;31270;48.328;10.096;2022-09-29T08:35:31;12.50;;;8.53;;
45548;SDS011;31270;48.328;10.096;2022-09-29T08:37:57;14.07;;;9.87;;
45548;SDS011;31270;48.328;10.096;2022-09-29T08:40:22;12.43;;;9.47;;
45548;SDS011;31270;48.328;10.096;2022-09-29T08:43:03;13.57;;;8.60;;
45548;SDS011;31270;48.328;10.096;2022-09-29T08:45:58;11.03;;;8.80;;
45548;SDS011;31270;48.328;10.096;2022-09-29T08:48:45;11.17;;;8.33;;
45548;SDS011;31270;48.328;10.096;2022-09-29T08:51:26;11.10;;;8.10;;
45548;SDS011;31270;48.328;10.096;2022-09-29T08:53:59;12.13;;;8.83;;
45548;SDS011;31270;48.328;10.096;2022-09-29T08:56:32;11.30;;;8.47;;
45548;SDS011;31270;48.328;10.096;2022-09-29T08:58:58;13.93;;;8.23;;
45548;SDS011;31270;48.328;10.096;2022-09-29T09:18:47;10.80;;;8.10;;
45548;SDS011;31270;48.328;10.096;2022-09-29T09:21:19;9.23;;;7.53;;
45548;SDS011;31270;48.328;10.096;2022-09-29T09:26:46;8.87;;;6.83;;
45548;SDS011;31270;48.328;10.096;2022-09-29T09:29:31;9.27;;;6.87;;
45548;SDS011;31270;48.328;10.096;2022-09-29T09:32:05;9.50;;;7.80;;
45548;SDS011;31270;48.328;10.096;2022-09-29T09:37:39;6.90;;;6.10;;
45548;SDS011;31270;48.328;10.096;2022-09-29T09:42:37;9.73;;;6.00;;
45548;SDS011;31270;48.328;10.096;2022-09-29T09:47:41;10.10;;;6.27;;
45548;SDS011;31270;48.328;10.096;2022-09-29T09:50:20;7.63;;;6.57;;
45548;SDS011;31270;48.328;10.096;2022-09-29T09:53:04;9.67;;;6.47;;
45548;SDS011;31270;48.328;10.096;2022-09-29T09:55:41;7.07;;;6.37;;
45548;SDS011;31270;48.328;10.096;2022-09-29T10:01:05;6.77;;;5.87;;
45548;SDS011;31270;48.328;10.096;2022-09-29T10:03:32;8.97;;;6.07;;
45548;SDS011;31270;48.328;10.096;2022-09-29T10:05:58;9.03;;;6.33;;
45548;SDS011;31270;48.328;10.096;2022-09-29T10:08:28;9.77;;;6.70;;
45548;SDS011;31270;48.328;10.096;2022-09-29T10:11:02;7.30;;;6.43;;
45548;SDS011;31270;48.328;10.096;2022-09-29T10:13:33;7.73;;;6.37;;
45548;SDS011;31270;48.328;10.096;2022-09-29T10:16:08;11.63;;;7.07;;
45548;SDS011;31270;48.328;10.096;2022-09-29T10:21:51;8.97;;;6.93;;
45548;SDS011;31270;48.328;10.096;2022-09-29T10:24:18;9.53;;;6.07;;
45548;SDS011;31270;48.328;10.096;2022-09-29T10:26:57;6.77;;;6.07;;
45548;SDS011;31270;48.328;10.096;2022-09-29T10:29:38;6.60;;;5.90;;
45548;SDS011;31270;48.328;10.096;2022-09-29T10:32:07;7.37;;;5.60;;
45548;SDS011;31270;48.328;10.096;2022-09-29T10:35:21;7.33;;;5.90;;
45548;SDS011;31270;48.328;10.096;2022-09-29T10:38:00;6.17;;;5.57;;
45548;SDS011;31270;48.328;10.096;2022-09-29T10:40:30;6.87;;;6.17;;
45548;SDS011;31270;48.328;10.096;2022-09-29T10:42:57;6.27;;;5.67;;
45548;SDS011;31270;48.328;10.096;2022-09-29T10:45:26;6.00;;;5.10;;
45548;SDS011;31270;48.328;10.096;2022-09-29T10:50:23;6.43;;;4.90;;
45548;SDS011;31270;48.328;10.096;2022-09-29T10:55:22;5.30;;;4.60;;
45548;SDS011;31270;48.328;10.096;2022-09-29T10:57:53;6.87;;;4.63;;
45548;SDS011;31270;48.328;10.096;2022-09-29T11:00:35;5.10;;;4.40;;
45548;SDS011;31270;48.328;10.096;2022-09-29T11:08:20;5.37;;;3.93;;
45548;SDS011;31270;48.328;10.096;2022-09-29T11:11:01;5.00;;;4.10;;
45548;SDS011;31270;48.328;10.096;2022-09-29T11:13:35;6.60;;;4.00;;
45548;SDS011;31270;48.328;10.096;2022-09-29T11:16:11;7.47;;;4.07;;
45548;SDS011;31270;48.328;10.096;2022-09-29T11:18:40;7.40;;;4.43;;
45548;SDS011;31270;48.328;10.096;2022-09-29T11:26:52;5.43;;;4.00;;
45548;SDS011;31270;48.328;10.096;2022-09-29T11:29:49;4.47;;;3.77;;
45548;SDS011;31270;48.328;10.096;2022-09-29T11:36:06;5.00;;;3.23;;
45548;SDS011;31270;48.328;10.096;2022-09-29T11:41:57;2.73;;;2.50;;
45548;SDS011;31270;48.328;10.096;2022-09-29T11:44:28;4.87;;;2.93;;
45548;SDS011;31270;48.328;10.096;2022-09-29T11:47:10;4.10;;;2.60;;
45548;SDS011;31270;48.328;10.096;2022-09-29T11:55:48;4.63;;;2.53;;
45548;SDS011;31270;48.328;10.096;2022-09-29T12:07:16;2.70;;;2.40;;
45548;SDS011;31270;48.328;10.096;2022-09-29T12:10:02;3.60;;;2.13;;
45548;SDS011;31270;48.328;10.096;2022-09-29T12:18:21;2.60;;;2.40;;
45548;SDS011;31270;48.328;10.096;2022-09-29T12:20:56;2.87;;;2.60;;
45548;SDS011;31270;48.328;10.096;2022-09-29T12:23:23;3.07;;;2.77;;
45548;SDS011;31270;48.328;10.096;2022-09-29T12:25:56;5.10;;;2.40;;
45548;SDS011;31270;48.328;10.096;2022-09-29T12:29:21;2.77;;;2.57;;
45548;SDS011;31270;48.328;10.096;2022-09-29T12:31:24;2.93;;;2.63;;
45548;SDS011;31270;48.328;10.096;2022-09-29T12:33:56;2.30;;;2.07;;
45548;SDS011;31270;48.328;10.096;2022-09-29T12:36:33;2.40;;;2.20;;
45548;SDS011;31270;48.328;10.096;2022-09-29T12:52:57;2.40;;;2.10;;
45548;SDS011;31270;48.328;10.096;2022-09-29T12:56:15;4.87;;;2.30;;
45548;SDS011;31270;48.328;10.096;2022-09-29T12:58:40;6.10;;;2.33;;
45548;SDS011;31270;48.328;10.096;2022-09-29T13:06:27;2.50;;;2.30;;
45548;SDS011;31270;48.328;10.096;2022-09-29T13:17:16;2.43;;;2.07;;
45548;SDS011;31270;48.328;10.096;2022-09-29T13:20:03;2.30;;;2.10;;
45548;SDS011;31270;48.328;10.096;2022-09-29T13:31:11;5.47;;;2.50;;
45548;SDS011;31270;48.328;10.096;2022-09-29T13:34:01;6.13;;;2.30;;
45548;SDS011;31270;48.328;10.096;2022-09-29T13:36:36;3.20;;;2.10;;
45548;SDS011;31270;48.328;10.096;2022-09-29T13:39:04;2.50;;;2.30;;
45548;SDS011;31270;48.328;10.096;2022-09-29T13:41:33;3.30;;;2.60;;
45548;SDS011;31270;48.328;10.096;2022-09-29T13:44:22;4.43;;;2.50;;
45548;SDS011;31270;48.328;10.096;2022-09-29T13:46:52;2.03;;;1.87;;
45548;SDS011;31270;48.328;10.096;2022-09-29T13:54:21;3.23;;;2.13;;
45548;SDS011;31270;48.328;10.096;2022-09-29T13:56:48;2.20;;;2.00;;
45548;SDS011;31270;48.328;10.096;2022-09-29T13:59:22;3.53;;;1.90;;
45548;SDS011;31270;48.328;10.096;2022-09-29T14:01:48;4.93;;;2.90;;
45548;SDS011;31270;48.328;10.096;2022-09-29T14:07:05;3.23;;;1.90;;
45548;SDS011;31270;48.328;10.096;2022-09-29T14:09:36;2.20;;;2.00;;
45548;SDS011;31270;48.328;10.096;2022-09-29T14:12:08;3.30;;;2.00;;
45548;SDS011;31270;48.328;10.096;2022-09-29T14:14:45;2.10;;;1.80;;
45548;SDS011;31270;48.328;10.096;2022-09-29T14:17:20;2.37;;;2.17;;
45548;SDS011;31270;48.328;10.096;2022-09-29T14:30:20;2.50;;;2.10;;
45548;SDS011;31270;48.328;10.096;2022-09-29T14:33:12;4.77;;;2.60;;
45548;SDS011;31270;48.328;10.096;2022-09-29T14:35:43;2.97;;;2.67;;
45548;SDS011;31270;48.328;10.096;2022-09-29T14:46:18;2.35;;;2.15;;
45548;SDS011;31270;48.328;10.096;2022-09-29T14:52:28;2.70;;;2.50;;
45548;SDS011;31270;48.328;10.096;2022-09-29T14:55:14;3.37;;;2.70;;
45548;SDS011;31270;48.328;10.096;2022-09-29T15:00:49;4.63;;;2.53;;
45548;SDS011;31270;48.328;10.096;2022-09-29T15:03:46;3.67;;;2.47;;
45548;SDS011;31270;48.328;10.096;2022-09-29T15:06:27;3.35;;;2.10;;
45548;SDS011;31270;48.328;10.096;2022-09-29T15:08:57;2.43;;;2.10;;
45548;SDS011;31270;48.328;10.096;2022-09-29T15:11:28;3.57;;;2.10;;
45548;SDS011;31270;48.328;10.096;2022-09-29T15:14:15;1.93;;;1.73;;
45548;SDS011;31270;48.328;10.096;2022-09-29T15:16:47;1.97;;;1.63;;
45548;SDS011;31270;48.328;10.096;2022-09-29T15:25:28;2.10;;;1.67;;
45548;SDS011;31270;48.328;10.096;2022-09-29T15:28:03;2.10;;;1.95;;
45548;SDS011;31270;48.328;10.096;2022-09-29T15:31:09;3.83;;;1.93;;
45548;SDS011;31270;48.328;10.096;2022-09-29T15:33:41;3.43;;;1.97;;
45548;SDS011;31270;48.328;10.096;2022-09-29T15:36:20;3.53;;;2.27;;
45548;SDS011;31270;48.328;10.096;2022-09-29T15:38:53;2.07;;;1.73;;
45548;SDS011;31270;48.328;10.096;2022-09-29T15:41:23;3.27;;;1.87;;
45548;SDS011;31270;48.328;10.096;2022-09-29T15:47:07;3.43;;;1.57;;
45548;SDS011;31270;48.328;10.096;2022-09-29T15:49:18;2.47;;;1.60;;
45548;SDS011;31270;48.328;10.096;2022-09-29T15:52:05;2.00;;;1.80;;
45548;SDS011;31270;48.328;10.096;2022-09-29T15:54:37;4.87;;;2.90;;
45548;SDS011;31270;48.328;10.096;2022-09-29T15:57:19;7.10;;;2.30;;
45548;SDS011;31270;48.328;10.096;2022-09-29T16:02:45;4.93;;;1.60;;
45548;SDS011;31270;48.328;10.096;2022-09-29T16:05:19;2.27;;;1.60;;
45548;SDS011;31270;48.328;10.096;2022-09-29T16:07:57;3.70;;;1.60;;
45548;SDS011;31270;48.328;10.096;2022-09-29T16:10:29;2.97;;;1.60;;
45548;SDS011;31270;48.328;10.096;2022-09-29T16:13:01;3.50;;;1.60;;
45548;SDS011;31270;48.328;10.096;2022-09-29T16:15:42;1.73;;;1.43;;
45548;SDS011;31270;48.328;10.096;2022-09-29T16:18:23;1.70;;;1.60;;
45548;SDS011;31270;48.328;10.096;2022-09-29T16:20:49;1.60;;;1.50;;
45548;SDS011;31270;48.328;10.096;2022-09-29T16:23:21;2.23;;;1.70;;
45548;SDS011;31270;48.328;10.096;2022-09-29T16:26:12;5.47;;;2.00;;
45548;SDS011;31270;48.328;10.096;2022-09-29T16:28:59;1.90;;;1.80;;
45548;SDS011;31270;48.328;10.096;2022-09-29T16:31:28;2.47;;;2.10;;
45548;SDS011;31270;48.328;10.096;2022-09-29T16:33:55;5.10;;;2.60;;
45548;SDS011;31270;48.328;10.096;2022-09-29T16:36:32;3.47;;;2.57;;
45548;SDS011;31270;48.328;10.096;2022-09-29T16:39:03;4.63;;;2.30;;
45548;SDS011;31270;48.328;10.096;2022-09-29T16:41:34;3.83;;;2.10;;
45548;SDS011;31270;48.328;10.096;2022-09-29T16:49:22;4.10;;;2.10;;
45548;SDS011;31270;48.328;10.096;2022-09-29T16:52:12;2.03;;;1.87;;
45548;SDS011;31270;48.328;10.096;2022-09-29T16:54:42;2.63;;;2.10;;
45548;SDS011;31270;48.328;10.096;2022-09-29T16:57:21;2.40;;;2.20;;
45548;SDS011;31270;48.328;10.096;2022-09-29T16:59:54;2.77;;;2.00;;
45548;SDS011;31270;48.328;10.096;2022-09-29T17:02:23;3.53;;;1.87;;
45548;SDS011;31270;48.328;10.096;2022-09-29T17:04:51;1.83;;;1.73;;
45548;SDS011;31270;48.328;10.096;2022-09-29T17:07:18;2.30;;;2.10;;
45548;SDS011;31270;48.328;10.096;2022-09-29T17:09:46;2.67;;;2.13;;
45548;SDS011;31270;48.328;10.096;2022-09-29T17:12:15;3.53;;;2.17;;
45548;SDS011;31270;48.328;10.096;2022-09-29T17:14:42;4.90;;;2.70;;
45548;SDS011;31270;48.328;10.096;2022-09-29T17:17:22;4.33;;;2.73;;
45548;SDS011;31270;48.328;10.096;2022-09-29T17:19:49;2.97;;;2.50;;
45548;SDS011;31270;48.328;10.096;2022-09-29T17:22:26;2.60;;;2.30;;
45548;SDS011;31270;48.328;10.096;2022-09-29T17:24:54;4.53;;;2.97;;
45548;SDS011;31270;48.328;10.096;2022-09-29T17:27:21;3.20;;;2.90;;
45548;SDS011;31270;48.328;10.096;2022-09-29T17:30:06;3.40;;;3.10;;
45548;SDS011;31270;48.328;10.096;2022-09-29T17:32:32;3.63;;;3.07;;
45548;SDS011;31270;48.328;10.096;2022-09-29T17:35:00;5.53;;;3.00;;
45548;SDS011;31270;48.328;10.096;2022-09-29T17:37:26;3.93;;;2.70;;
45548;SDS011;31270;48.328;10.096;2022-09-29T17:39:52;2.80;;;2.50;;
45548;SDS011;31270;48.328;10.096;2022-09-29T17:42:17;3.80;;;2.73;;
45548;SDS011;31270;48.328;10.096;2022-09-29T17:44:43;2.70;;;2.47;;
45548;SDS011;31270;48.328;10.096;2022-09-29T17:47:12;3.83;;;2.57;;
45548;SDS011;31270;48.328;10.096;2022-09-29T17:49:40;3.53;;;2.87;;
45548;SDS011;31270;48.328;10.096;2022-09-29T17:52:09;3.57;;;3.07;;
45548;SDS011;31270;48.328;10.096;2022-09-29T17:54:39;2.90;;;2.60;;
45548;SDS011;31270;48.328;10.096;2022-09-29T17:57:05;3.07;;;2.77;;
45548;SDS011;31270;48.328;10.096;2022-09-29T17:59:33;3.60;;;3.10;;
45548;SDS011;31270;48.328;10.096;2022-09-29T18:02:08;3.50;;;3.20;;